Monticello, IN (47960)

6:57 PM EST on December 10, 2016 (GMT -0500)
| | Change Station
Active Advisory: Winter Weather Advisory

Elev -9999 ft 0.00 °N, 0.00 °E | Updated 4 minutes ago

Snow
Snow
72 °F
Feels Like 72 °F
N
5
Wind Variable Wind from South
Gusts mph

Today
High -- | Low -- °F
--% Chance of Precip.
Yesterday
High -- | Low -- °F
Precip. -- in
Pressure 30.44 in
Visibility 5.0 miles
Clouds Scattered Clouds 2700 ft
Overcast 3400 ft
Dew Point 64 °F
Humidity 74%
Rainfall --
Snow Depth Not available.
8:00 AM 5:19 PM
Waxing Gibbous, 87% visible
METAR KGGP 102335Z AUTO 20005KT 5SM -SN SCT027 OVC034 M03/M07 A3044 RMK AO2
Pressure 30.44 in
Visibility 5.0 miles
Clouds Scattered Clouds 2700 ft
Overcast 3400 ft
Dew Point 64 °F
Humidity 74%
Rainfall --
Snow Depth Not available.
8:00 AM 5:19 PM
Waxing Gibbous, 87% visible
METAR KGGP 102335Z AUTO 20005KT 5SM -SN SCT027 OVC034 M03/M07 A3044 RMK AO2

10-Day Weather Forecast

Almanac

Astronomy

Dec. 10, 2016 Rise Set
Actual Time
Civil Twilight
Nautical Twilight
Astronomical Twilight
Moon
Length of Visible Light
Length of Day
Tomorrow will be .
, % of the Moon is Illuminated

Today's Extremes

State Highs State Lows

Community

WunderPhotos

Upload Photos

1,956,677 photos uploaded!

WunderBlog® & News

Nearby

Air Quality

  Air Quality AQ Index Pollutant
Not available.

Snow Depth

Station Depth Elevation

Earthquake Activity

City Distance Mag. Time & Date
Minimum magnitude displayed is 2.5.

Coastal Water Temperatures

Place Temperature

Stations

Nearby Weather Stations

Station Location Temp. Windchill Dew Point Humidity Wind Precip. Elev Updated Type
                   

Watches & Warnings

Winter Weather Advisory
Issued: 2:13 PM CST Dec. 10, 2016 – National Weather Service

... Winter Weather Advisory remains in effect from 9 PM EST /8 PM
CST/ this evening to 4 am EST /3 am CST/ Monday...

Hazardous weather...

* storm total snowfall accumulations from tonight through Sunday
   night of 3 to 7 inches... but lesser accumulations of 2 to 4
   inches southeast of the Route 24 corridor.

* Light snow is expected to overspread the area this evening...
   but will pick up in intensity during the overnight hours into
   Sunday morning. Snow will continue through Sunday evening but
   may mix with or change over to rain late Sunday afternoon and
   evening before diminishing.

Impacts...

* roads may become snow covered and slick late tonight into
   Sunday morning. Some improvement in Road conditions is possible
   later Sunday afternoon and Sunday evening as temperatures rise
   into the mid 30s.

Precautionary/preparedness actions...

A Winter Weather Advisory for snow means that periods of snow
will cause primarily travel difficulties. Be prepared for snow
covered roads and limited visibilities... and use caution while
driving.